KBLM/BLM METAR and TAF weather

Enter ICAO airport designator
Station Type Date Time Source
KBLM METAR 2021/04/18 02:56 UTC NOAA

KBLM 180256Z AUTO 27005KT 10SM OVC075 09/04 A2985 RMK AO2 SLP107 6//// T00940044 51008 PNO $


Station Type Date Time Source
KBLM Decoded METAR 2021/04/18 02:56 UTC NOAA

Belmar-Farmingdale, NJ, United States (KBLM) 40-11N 074-08W
Apr 17, 2021 - 10:56 PM EDT / 2021.04.18 0256 UTC
Wind: from the W (270 degrees) at 6 MPH (5 KT):0
Visibility: 10 mile(s):0
Sky conditions: overcast
Temperature: 48.9 F (9.4 C)
Dew Point: 39.9 F (4.4 C)
Relative Humidity: 70%
Pressure (altimeter): 29.85 in. Hg (1010 hPa)
Pressure tendency: 0.02 inches (0.8 hPa) higher than three hours ago
ob: KBLM 180256Z AUTO 27005KT 10SM OVC075 09/04 A2985 RMK AO2 SLP107 6//// T00940044 51008 PNO
cycle: 3

Station Type Date Time Source
KBLM TAF UTC NOAA

Error!

Example: see airport list